sensor_id;sensor_type;location;lat;lon;timestamp;P1;durP1;ratioP1;P2;durP2;ratioP2
20095;SDS011;10207;50.942;6.900;2022-12-07T00:01:21;42.00;;;24.60;;
20095;SDS011;10207;50.942;6.900;2022-12-07T00:03:48;44.30;;;26.40;;
20095;SDS011;10207;50.942;6.900;2022-12-07T00:06:15;42.73;;;24.40;;
20095;SDS011;10207;50.942;6.900;2022-12-07T00:08:41;45.27;;;25.73;;
20095;SDS011;10207;50.942;6.900;2022-12-07T00:11:08;41.30;;;23.30;;
20095;SDS011;10207;50.942;6.900;2022-12-07T00:13:34;41.07;;;23.80;;
20095;SDS011;10207;50.942;6.900;2022-12-07T00:16:00;40.47;;;23.50;;
20095;SDS011;10207;50.942;6.900;2022-12-07T00:18:27;37.43;;;22.50;;
20095;SDS011;10207;50.942;6.900;2022-12-07T00:20:52;37.33;;;22.80;;
20095;SDS011;10207;50.942;6.900;2022-12-07T00:23:18;34.80;;;21.30;;
20095;SDS011;10207;50.942;6.900;2022-12-07T00:25:44;39.03;;;21.50;;
20095;SDS011;10207;50.942;6.900;2022-12-07T00:28:10;40.83;;;22.70;;
20095;SDS011;10207;50.942;6.900;2022-12-07T00:30:37;46.23;;;23.50;;
20095;SDS011;10207;50.942;6.900;2022-12-07T00:33:02;38.80;;;23.43;;
20095;SDS011;10207;50.942;6.900;2022-12-07T00:35:28;37.43;;;22.07;;
20095;SDS011;10207;50.942;6.900;2022-12-07T00:37:54;41.53;;;24.13;;
20095;SDS011;10207;50.942;6.900;2022-12-07T00:40:20;44.13;;;24.00;;
20095;SDS011;10207;50.942;6.900;2022-12-07T00:42:45;39.70;;;22.57;;
20095;SDS011;10207;50.942;6.900;2022-12-07T00:45:11;40.67;;;23.60;;
20095;SDS011;10207;50.942;6.900;2022-12-07T00:47:37;39.13;;;21.20;;
20095;SDS011;10207;50.942;6.900;2022-12-07T00:50:02;38.23;;;22.53;;
20095;SDS011;10207;50.942;6.900;2022-12-07T00:52:28;40.80;;;23.23;;
20095;SDS011;10207;50.942;6.900;2022-12-07T00:54:54;44.10;;;22.87;;
20095;SDS011;10207;50.942;6.900;2022-12-07T00:57:19;39.90;;;22.90;;
20095;SDS011;10207;50.942;6.900;2022-12-07T00:59:45;41.70;;;24.60;;
20095;SDS011;10207;50.942;6.900;2022-12-07T01:02:11;40.13;;;23.63;;
20095;SDS011;10207;50.942;6.900;2022-12-07T01:04:36;36.53;;;21.77;;
20095;SDS011;10207;50.942;6.900;2022-12-07T01:07:02;39.93;;;22.97;;
20095;SDS011;10207;50.942;6.900;2022-12-07T01:09:28;36.53;;;22.27;;
20095;SDS011;10207;50.942;6.900;2022-12-07T01:11:54;40.00;;;22.40;;
20095;SDS011;10207;50.942;6.900;2022-12-07T01:14:19;33.77;;;21.30;;
20095;SDS011;10207;50.942;6.900;2022-12-07T01:16:45;41.27;;;23.77;;
20095;SDS011;10207;50.942;6.900;2022-12-07T01:19:11;39.60;;;23.37;;
20095;SDS011;10207;50.942;6.900;2022-12-07T01:21:36;38.47;;;19.33;;
20095;SDS011;10207;50.942;6.900;2022-12-07T01:24:04;33.43;;;20.57;;
20095;SDS011;10207;50.942;6.900;2022-12-07T01:26:30;34.27;;;20.83;;
20095;SDS011;10207;50.942;6.900;2022-12-07T01:28:56;37.53;;;22.23;;
20095;SDS011;10207;50.942;6.900;2022-12-07T01:31:25;32.47;;;21.63;;
20095;SDS011;10207;50.942;6.900;2022-12-07T01:33:52;39.30;;;22.93;;
20095;SDS011;10207;50.942;6.900;2022-12-07T01:36:19;32.00;;;20.50;;
20095;SDS011;10207;50.942;6.900;2022-12-07T01:38:46;40.47;;;23.23;;
20095;SDS011;10207;50.942;6.900;2022-12-07T01:41:13;32.77;;;19.77;;
20095;SDS011;10207;50.942;6.900;2022-12-07T01:46:23;35.07;;;20.83;;
20095;SDS011;10207;50.942;6.900;2022-12-07T01:48:49;39.20;;;21.87;;
20095;SDS011;10207;50.942;6.900;2022-12-07T01:51:14;45.37;;;21.37;;
20095;SDS011;10207;50.942;6.900;2022-12-07T01:53:42;32.93;;;21.47;;
20095;SDS011;10207;50.942;6.900;2022-12-07T01:56:09;32.93;;;20.23;;
20095;SDS011;10207;50.942;6.900;2022-12-07T01:58:36;36.20;;;21.83;;
20095;SDS011;10207;50.942;6.900;2022-12-07T02:01:02;34.83;;;22.23;;
20095;SDS011;10207;50.942;6.900;2022-12-07T02:03:32;38.27;;;22.23;;
20095;SDS011;10207;50.942;6.900;2022-12-07T02:06:00;35.80;;;22.17;;
20095;SDS011;10207;50.942;6.900;2022-12-07T02:08:26;37.40;;;21.87;;
20095;SDS011;10207;50.942;6.900;2022-12-07T02:10:52;39.23;;;23.77;;
20095;SDS011;10207;50.942;6.900;2022-12-07T02:13:36;42.47;;;23.67;;
20095;SDS011;10207;50.942;6.900;2022-12-07T02:21:29;45.63;;;26.45;;
20095;SDS011;10207;50.942;6.900;2022-12-07T02:29:12;49.23;;;25.70;;
20095;SDS011;10207;50.942;6.900;2022-12-07T02:31:42;49.97;;;26.23;;
20095;SDS011;10207;50.942;6.900;2022-12-07T02:34:11;45.70;;;25.60;;
20095;SDS011;10207;50.942;6.900;2022-12-07T02:36:40;50.97;;;26.70;;
20095;SDS011;10207;50.942;6.900;2022-12-07T02:41:51;53.03;;;26.95;;
20095;SDS011;10207;50.942;6.900;2022-12-07T02:44:19;47.80;;;27.17;;
20095;SDS011;10207;50.942;6.900;2022-12-07T02:46:48;48.20;;;28.03;;
20095;SDS011;10207;50.942;6.900;2022-12-07T02:49:15;51.17;;;27.63;;
20095;SDS011;10207;50.942;6.900;2022-12-07T02:51:42;50.20;;;28.33;;
20095;SDS011;10207;50.942;6.900;2022-12-07T02:54:16;53.33;;;28.37;;
20095;SDS011;10207;50.942;6.900;2022-12-07T02:59:26;59.23;;;30.13;;
20095;SDS011;10207;50.942;6.900;2022-12-07T03:02:14;56.37;;;28.87;;
20095;SDS011;10207;50.942;6.900;2022-12-07T03:07:20;60.53;;;31.57;;
20095;SDS011;10207;50.942;6.900;2022-12-07T03:09:53;55.93;;;29.57;;
20095;SDS011;10207;50.942;6.900;2022-12-07T03:12:26;62.40;;;29.50;;
20095;SDS011;10207;50.942;6.900;2022-12-07T03:14:55;58.57;;;30.87;;
20095;SDS011;10207;50.942;6.900;2022-12-07T03:17:27;60.90;;;30.67;;
20095;SDS011;10207;50.942;6.900;2022-12-07T03:19:57;58.43;;;28.23;;
20095;SDS011;10207;50.942;6.900;2022-12-07T03:22:23;60.63;;;30.93;;
20095;SDS011;10207;50.942;6.900;2022-12-07T03:24:52;64.27;;;31.13;;
20095;SDS011;10207;50.942;6.900;2022-12-07T03:27:26;65.33;;;32.40;;
20095;SDS011;10207;50.942;6.900;2022-12-07T03:34:56;52.57;;;30.20;;
20095;SDS011;10207;50.942;6.900;2022-12-07T03:37:25;60.05;;;30.23;;
20095;SDS011;10207;50.942;6.900;2022-12-07T03:40:01;54.55;;;27.35;;
20095;SDS011;10207;50.942;6.900;2022-12-07T03:42:29;59.07;;;31.23;;
20095;SDS011;10207;50.942;6.900;2022-12-07T03:44:55;56.30;;;30.30;;
20095;SDS011;10207;50.942;6.900;2022-12-07T03:50:00;57.17;;;31.57;;
20095;SDS011;10207;50.942;6.900;2022-12-07T03:54:58;60.97;;;30.60;;
20095;SDS011;10207;50.942;6.900;2022-12-07T03:57:26;50.40;;;29.37;;
20095;SDS011;10207;50.942;6.900;2022-12-07T03:59:53;50.80;;;28.83;;
20095;SDS011;10207;50.942;6.900;2022-12-07T04:02:19;53.40;;;30.10;;
20095;SDS011;10207;50.942;6.900;2022-12-07T04:04:45;55.70;;;28.80;;
20095;SDS011;10207;50.942;6.900;2022-12-07T04:07:11;56.93;;;28.97;;
20095;SDS011;10207;50.942;6.900;2022-12-07T04:09:38;50.20;;;27.30;;
20095;SDS011;10207;50.942;6.900;2022-12-07T04:12:04;54.13;;;28.40;;
20095;SDS011;10207;50.942;6.900;2022-12-07T04:14:30;56.17;;;28.97;;
20095;SDS011;10207;50.942;6.900;2022-12-07T04:16:56;50.10;;;27.27;;
20095;SDS011;10207;50.942;6.900;2022-12-07T04:19:23;49.40;;;27.87;;
20095;SDS011;10207;50.942;6.900;2022-12-07T04:21:49;51.40;;;27.57;;
20095;SDS011;10207;50.942;6.900;2022-12-07T04:24:15;53.33;;;28.97;;
20095;SDS011;10207;50.942;6.900;2022-12-07T04:26:41;50.30;;;27.70;;
20095;SDS011;10207;50.942;6.900;2022-12-07T04:29:07;49.45;;;27.15;;
20095;SDS011;10207;50.942;6.900;2022-12-07T04:31:34;46.70;;;27.33;;
20095;SDS011;10207;50.942;6.900;2022-12-07T04:34:00;48.63;;;27.40;;
20095;SDS011;10207;50.942;6.900;2022-12-07T04:36:25;50.83;;;26.73;;
20095;SDS011;10207;50.942;6.900;2022-12-07T04:38:52;52.40;;;27.50;;
20095;SDS011;10207;50.942;6.900;2022-12-07T04:41:18;45.67;;;26.63;;
20095;SDS011;10207;50.942;6.900;2022-12-07T04:43:44;51.80;;;27.93;;
20095;SDS011;10207;50.942;6.900;2022-12-07T04:46:09;50.50;;;27.60;;
20095;SDS011;10207;50.942;6.900;2022-12-07T04:48:35;49.07;;;27.23;;
20095;SDS011;10207;50.942;6.900;2022-12-07T04:51:02;53.73;;;29.47;;
20095;SDS011;10207;50.942;6.900;2022-12-07T04:53:27;47.63;;;28.00;;
20095;SDS011;10207;50.942;6.900;2022-12-07T04:55:53;50.80;;;27.93;;
20095;SDS011;10207;50.942;6.900;2022-12-07T04:58:19;48.73;;;27.47;;
20095;SDS011;10207;50.942;6.900;2022-12-07T05:00:44;53.40;;;28.80;;
20095;SDS011;10207;50.942;6.900;2022-12-07T05:03:10;49.10;;;27.87;;
20095;SDS011;10207;50.942;6.900;2022-12-07T05:05:36;47.03;;;27.73;;
20095;SDS011;10207;50.942;6.900;2022-12-07T05:08:05;50.47;;;27.17;;
20095;SDS011;10207;50.942;6.900;2022-12-07T05:10:30;48.87;;;27.60;;
20095;SDS011;10207;50.942;6.900;2022-12-07T05:12:56;46.40;;;27.03;;
20095;SDS011;10207;50.942;6.900;2022-12-07T05:15:22;49.60;;;26.60;;
20095;SDS011;10207;50.942;6.900;2022-12-07T05:17:47;50.23;;;27.67;;
20095;SDS011;10207;50.942;6.900;2022-12-07T05:20:13;43.17;;;25.87;;
20095;SDS011;10207;50.942;6.900;2022-12-07T05:22:39;51.03;;;27.53;;
20095;SDS011;10207;50.942;6.900;2022-12-07T05:25:05;46.73;;;25.57;;
20095;SDS011;10207;50.942;6.900;2022-12-07T05:27:30;43.27;;;26.17;;
20095;SDS011;10207;50.942;6.900;2022-12-07T05:29:56;47.97;;;27.63;;
20095;SDS011;10207;50.942;6.900;2022-12-07T05:32:22;49.47;;;27.27;;
20095;SDS011;10207;50.942;6.900;2022-12-07T05:34:48;46.87;;;25.70;;
20095;SDS011;10207;50.942;6.900;2022-12-07T05:37:13;46.80;;;26.40;;
20095;SDS011;10207;50.942;6.900;2022-12-07T05:39:39;48.73;;;26.77;;
20095;SDS011;10207;50.942;6.900;2022-12-07T05:42:08;46.10;;;25.57;;
20095;SDS011;10207;50.942;6.900;2022-12-07T05:44:38;44.43;;;25.60;;
20095;SDS011;10207;50.942;6.900;2022-12-07T05:47:04;44.73;;;25.87;;
20095;SDS011;10207;50.942;6.900;2022-12-07T05:49:30;43.83;;;26.47;;
20095;SDS011;10207;50.942;6.900;2022-12-07T05:51:55;42.73;;;25.10;;
20095;SDS011;10207;50.942;6.900;2022-12-07T05:54:21;47.23;;;26.53;;
20095;SDS011;10207;50.942;6.900;2022-12-07T05:56:47;47.15;;;26.65;;
20095;SDS011;10207;50.942;6.900;2022-12-07T05:59:13;52.00;;;27.50;;
20095;SDS011;10207;50.942;6.900;2022-12-07T06:01:51;51.17;;;27.70;;
20095;SDS011;10207;50.942;6.900;2022-12-07T06:04:17;56.97;;;30.07;;
20095;SDS011;10207;50.942;6.900;2022-12-07T06:06:44;58.73;;;28.90;;
20095;SDS011;10207;50.942;6.900;2022-12-07T06:09:10;51.07;;;29.17;;
20095;SDS011;10207;50.942;6.900;2022-12-07T06:11:35;63.70;;;30.33;;
20095;SDS011;10207;50.942;6.900;2022-12-07T06:14:20;68.63;;;31.53;;
20095;SDS011;10207;50.942;6.900;2022-12-07T06:16:46;69.80;;;33.07;;
20095;SDS011;10207;50.942;6.900;2022-12-07T06:19:11;65.67;;;31.93;;
20095;SDS011;10207;50.942;6.900;2022-12-07T06:21:37;80.10;;;34.47;;
20095;SDS011;10207;50.942;6.900;2022-12-07T06:24:03;72.70;;;33.73;;
20095;SDS011;10207;50.942;6.900;2022-12-07T06:26:29;77.93;;;34.83;;
20095;SDS011;10207;50.942;6.900;2022-12-07T06:28:54;76.73;;;34.87;;
20095;SDS011;10207;50.942;6.900;2022-12-07T06:31:20;82.63;;;35.93;;
20095;SDS011;10207;50.942;6.900;2022-12-07T06:33:46;75.50;;;34.73;;
20095;SDS011;10207;50.942;6.900;2022-12-07T06:36:12;89.93;;;37.73;;
20095;SDS011;10207;50.942;6.900;2022-12-07T06:38:37;78.27;;;35.17;;
20095;SDS011;10207;50.942;6.900;2022-12-07T06:41:03;81.00;;;37.13;;
20095;SDS011;10207;50.942;6.900;2022-12-07T06:43:29;81.37;;;36.77;;
20095;SDS011;10207;50.942;6.900;2022-12-07T06:45:55;84.77;;;36.43;;
20095;SDS011;10207;50.942;6.900;2022-12-07T06:48:21;80.27;;;37.70;;
20095;SDS011;10207;50.942;6.900;2022-12-07T06:50:47;79.00;;;34.83;;
20095;SDS011;10207;50.942;6.900;2022-12-07T06:53:13;73.60;;;35.67;;
20095;SDS011;10207;50.942;6.900;2022-12-07T06:55:39;79.83;;;36.03;;
20095;SDS011;10207;50.942;6.900;2022-12-07T06:58:04;78.87;;;35.10;;
20095;SDS011;10207;50.942;6.900;2022-12-07T07:00:30;78.50;;;35.00;;
20095;SDS011;10207;50.942;6.900;2022-12-07T07:02:56;73.70;;;36.73;;
20095;SDS011;10207;50.942;6.900;2022-12-07T07:05:22;72.87;;;35.30;;
20095;SDS011;10207;50.942;6.900;2022-12-07T07:07:50;87.93;;;36.87;;
20095;SDS011;10207;50.942;6.900;2022-12-07T07:10:16;87.07;;;38.90;;
20095;SDS011;10207;50.942;6.900;2022-12-07T07:12:41;83.73;;;39.43;;
20095;SDS011;10207;50.942;6.900;2022-12-07T07:15:07;84.03;;;36.87;;
20095;SDS011;10207;50.942;6.900;2022-12-07T07:17:33;92.27;;;40.80;;
20095;SDS011;10207;50.942;6.900;2022-12-07T07:19:59;79.97;;;39.60;;
20095;SDS011;10207;50.942;6.900;2022-12-07T07:22:24;84.10;;;39.00;;
20095;SDS011;10207;50.942;6.900;2022-12-07T07:24:50;90.97;;;39.93;;
20095;SDS011;10207;50.942;6.900;2022-12-07T07:27:16;88.93;;;40.57;;
20095;SDS011;10207;50.942;6.900;2022-12-07T07:29:42;86.87;;;38.27;;
20095;SDS011;10207;50.942;6.900;2022-12-07T07:32:07;91.57;;;39.20;;
20095;SDS011;10207;50.942;6.900;2022-12-07T07:34:33;85.37;;;39.30;;
20095;SDS011;10207;50.942;6.900;2022-12-07T07:36:59;97.50;;;40.77;;
20095;SDS011;10207;50.942;6.900;2022-12-07T07:39:25;105.90;;;40.50;;
20095;SDS011;10207;50.942;6.900;2022-12-07T07:41:50;90.17;;;39.07;;
20095;SDS011;10207;50.942;6.900;2022-12-07T07:44:23;89.37;;;39.43;;
20095;SDS011;10207;50.942;6.900;2022-12-07T07:46:49;95.20;;;40.70;;
20095;SDS011;10207;50.942;6.900;2022-12-07T07:49:15;90.30;;;40.20;;
20095;SDS011;10207;50.942;6.900;2022-12-07T07:51:40;89.67;;;41.70;;
20095;SDS011;10207;50.942;6.900;2022-12-07T07:54:06;97.93;;;40.23;;
20095;SDS011;10207;50.942;6.900;2022-12-07T07:56:32;101.20;;;42.23;;
20095;SDS011;10207;50.942;6.900;2022-12-07T07:58:58;99.43;;;42.07;;
20095;SDS011;10207;50.942;6.900;2022-12-07T08:01:23;90.70;;;41.17;;
20095;SDS011;10207;50.942;6.900;2022-12-07T08:03:49;91.03;;;39.50;;
20095;SDS011;10207;50.942;6.900;2022-12-07T08:06:15;86.17;;;39.20;;
20095;SDS011;10207;50.942;6.900;2022-12-07T08:08:41;94.17;;;39.77;;
20095;SDS011;10207;50.942;6.900;2022-12-07T08:11:10;93.87;;;39.83;;
20095;SDS011;10207;50.942;6.900;2022-12-07T08:13:36;93.43;;;40.20;;
20095;SDS011;10207;50.942;6.900;2022-12-07T08:16:03;78.13;;;36.37;;
20095;SDS011;10207;50.942;6.900;2022-12-07T08:18:29;88.37;;;36.17;;
20095;SDS011;10207;50.942;6.900;2022-12-07T08:21:01;78.97;;;36.10;;
20095;SDS011;10207;50.942;6.900;2022-12-07T08:23:27;79.40;;;37.10;;
20095;SDS011;10207;50.942;6.900;2022-12-07T08:25:53;80.47;;;38.33;;
20095;SDS011;10207;50.942;6.900;2022-12-07T08:28:18;71.33;;;34.17;;
20095;SDS011;10207;50.942;6.900;2022-12-07T08:30:44;77.87;;;36.47;;
20095;SDS011;10207;50.942;6.900;2022-12-07T08:33:10;74.00;;;34.33;;
20095;SDS011;10207;50.942;6.900;2022-12-07T08:35:36;75.23;;;35.33;;
20095;SDS011;10207;50.942;6.900;2022-12-07T08:38:02;65.27;;;34.67;;
20095;SDS011;10207;50.942;6.900;2022-12-07T08:40:29;63.72;;;32.00;;
20095;SDS011;10207;50.942;6.900;2022-12-07T08:42:55;61.07;;;30.37;;
20095;SDS011;10207;50.942;6.900;2022-12-07T08:45:21;59.20;;;29.07;;
20095;SDS011;10207;50.942;6.900;2022-12-07T08:50:12;53.30;;;27.10;;
20095;SDS011;10207;50.942;6.900;2022-12-07T08:52:39;46.38;;;26.10;;
20095;SDS011;10207;50.942;6.900;2022-12-07T08:55:05;46.30;;;26.38;;
20095;SDS011;10207;50.942;6.900;2022-12-07T08:57:32;37.13;;;21.95;;
20095;SDS011;10207;50.942;6.900;2022-12-07T08:59:59;27.55;;;18.65;;
20095;SDS011;10207;50.942;6.900;2022-12-07T09:02:25;24.05;;;16.10;;
20095;SDS011;10207;50.942;6.900;2022-12-07T09:04:51;19.52;;;13.90;;
20095;SDS011;10207;50.942;6.900;2022-12-07T09:07:16;18.35;;;13.02;;
20095;SDS011;10207;50.942;6.900;2022-12-07T09:09:42;23.98;;;12.98;;
20095;SDS011;10207;50.942;6.900;2022-12-07T09:12:08;16.65;;;11.45;;
20095;SDS011;10207;50.942;6.900;2022-12-07T09:14:34;18.05;;;11.77;;
20095;SDS011;10207;50.942;6.900;2022-12-07T09:17:09;21.15;;;11.20;;
20095;SDS011;10207;50.942;6.900;2022-12-07T09:19:35;21.80;;;11.60;;
20095;SDS011;10207;50.942;6.900;2022-12-07T09:22:01;18.15;;;10.75;;
20095;SDS011;10207;50.942;6.900;2022-12-07T09:24:27;16.30;;;11.27;;
20095;SDS011;10207;50.942;6.900;2022-12-07T09:26:53;14.82;;;10.10;;
20095;SDS011;10207;50.942;6.900;2022-12-07T09:29:19;17.52;;;10.50;;
20095;SDS011;10207;50.942;6.900;2022-12-07T09:31:44;22.20;;;11.10;;
20095;SDS011;10207;50.942;6.900;2022-12-07T09:34:10;17.38;;;10.88;;
20095;SDS011;10207;50.942;6.900;2022-12-07T09:36:36;21.27;;;10.30;;
20095;SDS011;10207;50.942;6.900;2022-12-07T09:39:02;19.40;;;10.85;;
20095;SDS011;10207;50.942;6.900;2022-12-07T09:41:30;18.97;;;10.67;;
20095;SDS011;10207;50.942;6.900;2022-12-07T09:46:54;19.58;;;10.20;;
20095;SDS011;10207;50.942;6.900;2022-12-07T09:49:22;19.08;;;10.57;;
20095;SDS011;10207;50.942;6.900;2022-12-07T09:54:27;20.70;;;11.00;;
20095;SDS011;10207;50.942;6.900;2022-12-07T09:56:54;19.10;;;10.30;;
20095;SDS011;10207;50.942;6.900;2022-12-07T09:59:19;22.92;;;10.98;;
20095;SDS011;10207;50.942;6.900;2022-12-07T10:01:49;15.60;;;10.02;;
20095;SDS011;10207;50.942;6.900;2022-12-07T10:04:19;23.13;;;9.87;;
20095;SDS011;10207;50.942;6.900;2022-12-07T10:06:45;19.98;;;9.90;;
20095;SDS011;10207;50.942;6.900;2022-12-07T10:09:12;14.40;;;8.77;;
20095;SDS011;10207;50.942;6.900;2022-12-07T10:14:22;14.45;;;8.27;;
20095;SDS011;10207;50.942;6.900;2022-12-07T10:16:48;16.15;;;8.10;;
20095;SDS011;10207;50.942;6.900;2022-12-07T10:19:27;19.13;;;8.80;;
20095;SDS011;10207;50.942;6.900;2022-12-07T10:22:01;16.58;;;7.95;;
20095;SDS011;10207;50.942;6.900;2022-12-07T10:24:28;14.80;;;7.80;;
20095;SDS011;10207;50.942;6.900;2022-12-07T10:26:54;17.40;;;8.35;;
20095;SDS011;10207;50.942;6.900;2022-12-07T10:31:52;17.17;;;8.73;;
20095;SDS011;10207;50.942;6.900;2022-12-07T10:34:23;18.70;;;9.55;;
20095;SDS011;10207;50.942;6.900;2022-12-07T10:36:53;17.90;;;9.30;;
20095;SDS011;10207;50.942;6.900;2022-12-07T10:39:22;17.10;;;8.25;;
20095;SDS011;10207;50.942;6.900;2022-12-07T10:44:22;14.63;;;8.10;;
20095;SDS011;10207;50.942;6.900;2022-12-07T10:52:11;16.60;;;7.20;;
20095;SDS011;10207;50.942;6.900;2022-12-07T10:54:42;11.75;;;6.65;;
20095;SDS011;10207;50.942;6.900;2022-12-07T10:59:58;10.45;;;5.95;;
20095;SDS011;10207;50.942;6.900;2022-12-07T11:03:10;17.33;;;6.30;;
20095;SDS011;10207;50.942;6.900;2022-12-07T11:08:00;16.00;;;6.35;;
20095;SDS011;10207;50.942;6.900;2022-12-07T11:18:19;10.48;;;6.90;;
20095;SDS011;10207;50.942;6.900;2022-12-07T11:31:22;12.23;;;5.47;;
20095;SDS011;10207;50.942;6.900;2022-12-07T11:33:52;11.75;;;5.78;;
20095;SDS011;10207;50.942;6.900;2022-12-07T11:38:54;13.13;;;5.47;;
20095;SDS011;10207;50.942;6.900;2022-12-07T11:41:23;16.73;;;6.13;;
20095;SDS011;10207;50.942;6.900;2022-12-07T11:43:59;12.00;;;6.18;;
20095;SDS011;10207;50.942;6.900;2022-12-07T11:46:36;12.80;;;6.10;;
20095;SDS011;10207;50.942;6.900;2022-12-07T11:49:15;15.20;;;6.07;;
20095;SDS011;10207;50.942;6.900;2022-12-07T11:51:44;16.67;;;6.35;;
20095;SDS011;10207;50.942;6.900;2022-12-07T11:54:12;16.45;;;6.82;;
20095;SDS011;10207;50.942;6.900;2022-12-07T11:56:39;10.60;;;5.78;;
20095;SDS011;10207;50.942;6.900;2022-12-07T12:01:55;20.45;;;6.90;;
20095;SDS011;10207;50.942;6.900;2022-12-07T12:04:45;15.73;;;6.65;;
20095;SDS011;10207;50.942;6.900;2022-12-07T12:07:14;15.30;;;8.55;;
20095;SDS011;10207;50.942;6.900;2022-12-07T12:09:47;16.20;;;7.80;;
20095;SDS011;10207;50.942;6.900;2022-12-07T12:22:49;16.88;;;8.88;;
20095;SDS011;10207;50.942;6.900;2022-12-07T12:25:28;20.30;;;8.68;;
20095;SDS011;10207;50.942;6.900;2022-12-07T12:27:55;18.60;;;8.43;;
20095;SDS011;10207;50.942;6.900;2022-12-07T12:33:19;17.05;;;8.68;;
20095;SDS011;10207;50.942;6.900;2022-12-07T12:35:46;19.27;;;8.97;;
20095;SDS011;10207;50.942;6.900;2022-12-07T12:38:32;20.88;;;9.20;;
20095;SDS011;10207;50.942;6.900;2022-12-07T12:40:59;17.02;;;8.68;;
20095;SDS011;10207;50.942;6.900;2022-12-07T12:51:41;19.02;;;8.05;;
20095;SDS011;10207;50.942;6.900;2022-12-07T12:54:26;17.08;;;8.32;;
20095;SDS011;10207;50.942;6.900;2022-12-07T13:01:47;20.48;;;8.25;;
20095;SDS011;10207;50.942;6.900;2022-12-07T13:04:16;17.67;;;7.60;;
20095;SDS011;10207;50.942;6.900;2022-12-07T13:06:42;16.10;;;7.68;;
20095;SDS011;10207;50.942;6.900;2022-12-07T13:09:17;15.48;;;7.18;;
20095;SDS011;10207;50.942;6.900;2022-12-07T13:11:44;15.52;;;7.88;;
20095;SDS011;10207;50.942;6.900;2022-12-07T13:16:55;16.88;;;6.82;;
20095;SDS011;10207;50.942;6.900;2022-12-07T13:19:52;18.38;;;8.27;;
20095;SDS011;10207;50.942;6.900;2022-12-07T13:25:02;14.02;;;7.53;;
20095;SDS011;10207;50.942;6.900;2022-12-07T13:27:30;14.80;;;7.70;;
20095;SDS011;10207;50.942;6.900;2022-12-07T13:29:56;18.25;;;8.07;;
20095;SDS011;10207;50.942;6.900;2022-12-07T13:32:26;14.70;;;7.82;;
20095;SDS011;10207;50.942;6.900;2022-12-07T13:34:52;13.95;;;7.93;;
20095;SDS011;10207;50.942;6.900;2022-12-07T13:37:26;16.00;;;8.38;;
20095;SDS011;10207;50.942;6.900;2022-12-07T13:39:53;20.08;;;9.50;;
20095;SDS011;10207;50.942;6.900;2022-12-07T13:44:54;17.15;;;7.80;;
20095;SDS011;10207;50.942;6.900;2022-12-07T13:47:37;23.00;;;8.05;;
20095;SDS011;10207;50.942;6.900;2022-12-07T13:50:27;16.02;;;7.90;;
20095;SDS011;10207;50.942;6.900;2022-12-07T13:52:54;18.30;;;7.07;;
20095;SDS011;10207;50.942;6.900;2022-12-07T13:55:20;13.80;;;7.35;;
20095;SDS011;10207;50.942;6.900;2022-12-07T13:57:47;22.35;;;8.18;;
20095;SDS011;10207;50.942;6.900;2022-12-07T14:00:15;12.88;;;6.72;;
20095;SDS011;10207;50.942;6.900;2022-12-07T14:05:27;22.27;;;7.38;;
20095;SDS011;10207;50.942;6.900;2022-12-07T14:10:27;16.97;;;6.77;;
20095;SDS011;10207;50.942;6.900;2022-12-07T14:12:54;15.05;;;6.78;;
20095;SDS011;10207;50.942;6.900;2022-12-07T14:15:21;13.80;;;6.97;;
20095;SDS011;10207;50.942;6.900;2022-12-07T14:17:51;14.30;;;7.07;;
20095;SDS011;10207;50.942;6.900;2022-12-07T14:22:58;15.38;;;7.75;;
20095;SDS011;10207;50.942;6.900;2022-12-07T14:25:25;13.05;;;7.50;;
20095;SDS011;10207;50.942;6.900;2022-12-07T14:27:59;20.27;;;8.02;;
20095;SDS011;10207;50.942;6.900;2022-12-07T14:30:27;22.23;;;7.75;;
20095;SDS011;10207;50.942;6.900;2022-12-07T14:32:54;16.90;;;7.78;;
20095;SDS011;10207;50.942;6.900;2022-12-07T14:35:20;15.85;;;8.30;;
20095;SDS011;10207;50.942;6.900;2022-12-07T14:37:47;19.73;;;9.25;;
20095;SDS011;10207;50.942;6.900;2022-12-07T14:40:14;22.48;;;8.85;;
20095;SDS011;10207;50.942;6.900;2022-12-07T14:42:40;15.25;;;7.97;;
20095;SDS011;10207;50.942;6.900;2022-12-07T14:45:11;16.25;;;8.05;;
20095;SDS011;10207;50.942;6.900;2022-12-07T14:47:38;16.65;;;8.52;;
20095;SDS011;10207;50.942;6.900;2022-12-07T14:50:04;14.55;;;8.93;;
20095;SDS011;10207;50.942;6.900;2022-12-07T14:52:30;18.42;;;8.85;;
20095;SDS011;10207;50.942;6.900;2022-12-07T14:54:55;15.70;;;8.63;;
20095;SDS011;10207;50.942;6.900;2022-12-07T14:57:23;26.63;;;10.00;;
20095;SDS011;10207;50.942;6.900;2022-12-07T14:59:49;19.35;;;9.38;;
20095;SDS011;10207;50.942;6.900;2022-12-07T15:02:15;26.27;;;10.13;;
20095;SDS011;10207;50.942;6.900;2022-12-07T15:04:40;19.60;;;8.90;;
20095;SDS011;10207;50.942;6.900;2022-12-07T15:07:09;17.07;;;8.60;;
20095;SDS011;10207;50.942;6.900;2022-12-07T15:09:36;22.75;;;9.63;;
20095;SDS011;10207;50.942;6.900;2022-12-07T15:12:01;13.93;;;8.55;;
20095;SDS011;10207;50.942;6.900;2022-12-07T15:14:28;19.30;;;9.68;;
20095;SDS011;10207;50.942;6.900;2022-12-07T15:16:53;16.20;;;9.90;;
20095;SDS011;10207;50.942;6.900;2022-12-07T15:19:20;18.23;;;9.80;;
20095;SDS011;10207;50.942;6.900;2022-12-07T15:21:48;15.02;;;9.18;;
20095;SDS011;10207;50.942;6.900;2022-12-07T15:24:14;17.95;;;9.57;;
20095;SDS011;10207;50.942;6.900;2022-12-07T15:26:40;21.83;;;12.40;;
20095;SDS011;10207;50.942;6.900;2022-12-07T15:29:06;13.90;;;7.10;;
20095;SDS011;10207;50.942;6.900;2022-12-07T15:31:32;11.03;;;6.77;;
20095;SDS011;10207;50.942;6.900;2022-12-07T15:33:58;12.20;;;6.73;;
20095;SDS011;10207;50.942;6.900;2022-12-07T15:36:25;16.45;;;7.63;;
20095;SDS011;10207;50.942;6.900;2022-12-07T15:38:52;16.08;;;7.30;;
20095;SDS011;10207;50.942;6.900;2022-12-07T15:41:17;17.17;;;7.23;;
20095;SDS011;10207;50.942;6.900;2022-12-07T15:43:43;12.83;;;6.77;;
20095;SDS011;10207;50.942;6.900;2022-12-07T15:46:34;11.97;;;7.30;;
20095;SDS011;10207;50.942;6.900;2022-12-07T15:49:00;14.23;;;7.53;;
20095;SDS011;10207;50.942;6.900;2022-12-07T15:51:26;15.97;;;8.43;;
20095;SDS011;10207;50.942;6.900;2022-12-07T15:53:52;16.57;;;8.83;;
20095;SDS011;10207;50.942;6.900;2022-12-07T15:56:18;19.63;;;10.53;;
20095;SDS011;10207;50.942;6.900;2022-12-07T15:58:44;18.90;;;10.20;;
20095;SDS011;10207;50.942;6.900;2022-12-07T16:01:11;20.90;;;11.73;;
20095;SDS011;10207;50.942;6.900;2022-12-07T16:03:37;22.70;;;12.30;;
20095;SDS011;10207;50.942;6.900;2022-12-07T16:06:02;21.83;;;12.40;;
20095;SDS011;10207;50.942;6.900;2022-12-07T16:08:28;23.87;;;12.00;;
20095;SDS011;10207;50.942;6.900;2022-12-07T16:10:54;24.70;;;13.30;;
20095;SDS011;10207;50.942;6.900;2022-12-07T16:13:19;19.67;;;11.37;;
20095;SDS011;10207;50.942;6.900;2022-12-07T16:15:46;24.63;;;10.07;;
20095;SDS011;10207;50.942;6.900;2022-12-07T16:18:12;21.03;;;10.57;;
20095;SDS011;10207;50.942;6.900;2022-12-07T16:20:38;17.73;;;10.23;;
20095;SDS011;10207;50.942;6.900;2022-12-07T16:23:03;12.63;;;7.40;;
20095;SDS011;10207;50.942;6.900;2022-12-07T16:25:29;14.97;;;8.20;;
20095;SDS011;10207;50.942;6.900;2022-12-07T16:27:55;19.00;;;7.03;;
20095;SDS011;10207;50.942;6.900;2022-12-07T16:30:20;10.57;;;7.33;;
20095;SDS011;10207;50.942;6.900;2022-12-07T16:32:46;16.93;;;6.47;;